createdAt,value
2023-01-23T00:00:56.412Z,102684.13
2023-01-23T00:03:23.008Z,102691.19
2023-01-23T00:06:04.155Z,102699.78
2023-01-23T00:08:30.767Z,102586.88
2023-01-23T00:10:57.751Z,102678.25
2023-01-23T00:13:26.648Z,102688.84
2023-01-23T00:15:53.142Z,102552.63
2023-01-23T00:18:19.514Z,102667.78
2023-01-23T00:20:45.871Z,102667.00
2023-01-23T00:23:13.360Z,102588.38
2023-01-23T00:25:39.869Z,102647.22
2023-01-23T00:28:06.341Z,102667.13
2023-01-23T00:30:33.555Z,102689.44
2023-01-23T00:33:00.251Z,102569.59
2023-01-23T00:35:26.597Z,102673.44
2023-01-23T00:37:53.108Z,102684.84
2023-01-23T00:40:19.865Z,102661.34
2023-01-23T00:42:46.344Z,102663.84
2023-01-23T00:45:12.767Z,102617.69
2023-01-23T00:47:39.207Z,102683.31
2023-01-23T00:50:05.859Z,102688.03
2023-01-23T00:52:32.185Z,102584.88
2023-01-23T00:54:58.732Z,102679.84
2023-01-23T00:57:25.106Z,102671.03
2023-01-23T00:59:51.443Z,102672.72
2023-01-23T01:02:17.892Z,102684.00
2023-01-23T01:04:44.259Z,102622.72
2023-01-23T01:07:10.611Z,102665.84
2023-01-23T01:09:36.936Z,102642.03
2023-01-23T01:12:03.424Z,102636.38
2023-01-23T01:14:29.862Z,102671.69
2023-01-23T01:16:56.300Z,102680.72
2023-01-23T01:19:22.610Z,102685.16
2023-01-23T01:21:48.981Z,102602.50
2023-01-23T01:24:15.368Z,102632.84
2023-01-23T01:26:41.989Z,102648.38
2023-01-23T01:29:08.364Z,102616.75
2023-01-23T01:31:34.849Z,102690.00
2023-01-23T01:34:01.303Z,102596.50
2023-01-23T01:36:27.675Z,102711.78
2023-01-23T01:38:54.015Z,102607.91
2023-01-23T01:41:21.563Z,102630.97
2023-01-23T01:43:47.966Z,102718.97
2023-01-23T01:46:32.691Z,102707.13
2023-01-23T01:49:05.931Z,102732.16
2023-01-23T01:51:50.332Z,102732.28
2023-01-23T01:54:21.908Z,102738.41
2023-01-23T01:56:53.397Z,102701.66
2023-01-23T01:59:23.039Z,102660.72
2023-01-23T02:01:53.550Z,102723.50
2023-01-23T02:04:20.295Z,102646.59
2023-01-23T02:06:46.984Z,102674.03
2023-01-23T02:09:21.465Z,102659.31
2023-01-23T02:11:49.346Z,102716.97
2023-01-23T02:14:16.507Z,102634.06
2023-01-23T02:16:50.049Z,102599.47
2023-01-23T02:19:27.851Z,102629.56
2023-01-23T02:22:05.357Z,102701.44
2023-01-23T02:24:39.143Z,102610.91
2023-01-23T02:27:05.532Z,102650.16
2023-01-23T02:29:48.188Z,102654.38
2023-01-23T02:32:14.613Z,102675.53
2023-01-23T02:34:42.272Z,102658.44
2023-01-23T02:37:09.168Z,102572.63
2023-01-23T02:39:35.503Z,102594.88
2023-01-23T02:42:02.937Z,102639.91
2023-01-23T02:44:34.179Z,102708.72
2023-01-23T02:47:03.920Z,102712.38
2023-01-23T02:49:30.791Z,102691.78
2023-01-23T02:51:57.255Z,102706.38
2023-01-23T02:54:24.737Z,102694.47
2023-01-23T02:56:51.609Z,102725.66
2023-01-23T02:59:36.521Z,102674.03
2023-01-23T03:02:06.081Z,102698.13
2023-01-23T03:04:32.493Z,102655.78
2023-01-23T03:06:59.244Z,102715.56
2023-01-23T03:09:25.771Z,102660.78
2023-01-23T03:11:52.280Z,102630.97
2023-01-23T03:14:21.919Z,102732.31
2023-01-23T03:16:51.407Z,102701.56
2023-01-23T03:19:19.402Z,102708.06
2023-01-23T03:21:45.883Z,102687.41
2023-01-23T03:24:14.132Z,102648.72
2023-01-23T03:26:42.220Z,102683.19
2023-01-23T03:29:33.334Z,102698.03
2023-01-23T03:31:59.995Z,102677.97
2023-01-23T03:34:26.404Z,102707.88
2023-01-23T03:36:52.917Z,102692.97
2023-01-23T03:39:38.122Z,102600.09
2023-01-23T03:42:04.488Z,102678.75
2023-01-23T03:44:30.832Z,102717.44
2023-01-23T03:46:57.260Z,102697.78
2023-01-23T03:49:23.649Z,102741.56
2023-01-23T03:51:50.017Z,102729.19
2023-01-23T03:54:16.463Z,102669.78
2023-01-23T03:56:42.932Z,102704.97
2023-01-23T03:59:09.954Z,102738.03
2023-01-23T04:01:37.028Z,102689.84
2023-01-23T04:04:03.940Z,102605.91
2023-01-23T04:06:30.810Z,102707.31
2023-01-23T04:08:58.183Z,102598.72
2023-01-23T04:11:26.331Z,102628.97
2023-01-23T04:13:54.155Z,102725.63
2023-01-23T04:16:22.736Z,102717.94
2023-01-23T04:18:50.413Z,102691.19
2023-01-23T04:21:17.703Z,102684.84
2023-01-23T04:23:44.296Z,102698.72
2023-01-23T04:26:10.800Z,102677.88
2023-01-23T04:28:37.217Z,102722.13
2023-01-23T04:31:03.847Z,102700.47
2023-01-23T04:33:30.480Z,102740.97
2023-01-23T04:35:59.150Z,102752.50
2023-01-23T04:38:28.128Z,102706.72
2023-01-23T04:40:55.286Z,102744.44
2023-01-23T04:43:22.219Z,102684.00
2023-01-23T04:45:54.876Z,102734.00
2023-01-23T04:48:21.976Z,102743.78
2023-01-23T04:50:50.009Z,102631.91
2023-01-23T04:53:16.716Z,102651.25
2023-01-23T04:55:43.053Z,102723.31
2023-01-23T04:58:11.270Z,102649.19
2023-01-23T05:00:38.190Z,102707.78
2023-01-23T05:03:05.008Z,102757.94
2023-01-23T05:05:31.759Z,102652.84
2023-01-23T05:07:58.110Z,102720.16
2023-01-23T05:10:24.477Z,102638.75
2023-01-23T05:12:50.821Z,102723.66
2023-01-23T05:15:17.335Z,102730.97
2023-01-23T05:17:43.936Z,102753.94
2023-01-23T05:20:11.077Z,102688.38
2023-01-23T05:22:37.496Z,102707.91
2023-01-23T05:25:04.110Z,102709.81
2023-01-23T05:27:30.510Z,102750.53
2023-01-23T05:29:56.824Z,102715.84
2023-01-23T05:32:23.222Z,102734.50
2023-01-23T05:34:49.557Z,102676.38
2023-01-23T05:37:16.158Z,102737.44
2023-01-23T05:39:42.616Z,102723.66
2023-01-23T05:42:08.966Z,102748.16
2023-01-23T05:44:35.339Z,102645.31
2023-01-23T05:47:01.678Z,102763.88
2023-01-23T05:49:27.989Z,102756.00
2023-01-23T05:51:54.334Z,102738.75
2023-01-23T05:54:20.720Z,102723.66
2023-01-23T05:56:47.086Z,102698.25
2023-01-23T05:59:13.400Z,102745.16
2023-01-23T06:01:39.757Z,102733.50
2023-01-23T06:04:06.075Z,102762.81
2023-01-23T06:06:32.780Z,102749.16
2023-01-23T06:09:00.331Z,102732.72
2023-01-23T06:11:26.736Z,102774.69
2023-01-23T06:13:53.080Z,102684.47
2023-01-23T06:16:19.494Z,102725.22
2023-01-23T06:18:45.876Z,102723.19
2023-01-23T06:21:12.295Z,102775.94
2023-01-23T06:23:38.684Z,102762.81
2023-01-23T06:26:05.421Z,102707.44
2023-01-23T06:28:31.928Z,102797.41
2023-01-23T06:31:02.460Z,102792.22
2023-01-23T06:33:29.227Z,102747.72
2023-01-23T06:36:00.195Z,102768.97
2023-01-23T06:38:27.984Z,102768.97
2023-01-23T06:40:54.509Z,102711.22
2023-01-23T06:43:21.721Z,102763.22
2023-01-23T06:45:48.472Z,102809.53
2023-01-23T06:48:15.151Z,102786.66
2023-01-23T06:50:43.510Z,102779.47
2023-01-23T06:53:15.037Z,102705.16
2023-01-23T06:55:41.414Z,102804.53
2023-01-23T06:58:07.854Z,102853.78
2023-01-23T07:00:34.363Z,102690.03
2023-01-23T07:03:03.719Z,102817.44
2023-01-23T07:05:31.138Z,102832.63
2023-01-23T07:07:57.856Z,102768.44
2023-01-23T07:10:26.202Z,102823.44
2023-01-23T07:12:52.627Z,102837.53
2023-01-23T07:15:19.006Z,102825.09
2023-01-23T07:17:45.517Z,102772.28
2023-01-23T07:20:12.296Z,102809.88
2023-01-23T07:22:38.690Z,102832.25
2023-01-23T07:25:05.714Z,102805.47
2023-01-23T07:27:33.102Z,102824.19
2023-01-23T07:29:59.476Z,102860.53
2023-01-23T07:32:29.179Z,102774.31
2023-01-23T07:34:55.681Z,102727.97
2023-01-23T07:37:22.247Z,102841.47
2023-01-23T07:39:49.980Z,102850.31
2023-01-23T07:42:16.664Z,102792.63
2023-01-23T07:44:43.105Z,102817.47
2023-01-23T07:47:10.833Z,102736.19
2023-01-23T07:49:41.039Z,102798.72
2023-01-23T07:52:07.519Z,102766.63
2023-01-23T07:54:38.439Z,102877.03
2023-01-23T07:57:05.002Z,102849.06
2023-01-23T07:59:36.107Z,102763.53
2023-01-23T08:02:02.492Z,102743.16
2023-01-23T08:04:28.908Z,102717.28
2023-01-23T08:06:55.294Z,102854.72
2023-01-23T08:09:21.628Z,102720.69
2023-01-23T08:11:50.748Z,102753.47
2023-01-23T08:14:17.169Z,102744.03
2023-01-23T08:16:43.765Z,102853.81
2023-01-23T08:19:10.178Z,102838.56
2023-01-23T08:21:36.669Z,102857.13
2023-01-23T08:24:04.689Z,102883.03
2023-01-23T08:26:31.097Z,102735.72
2023-01-23T08:28:57.435Z,102776.84
2023-01-23T08:31:23.844Z,102854.28
2023-01-23T08:33:51.022Z,102869.13
2023-01-23T08:36:18.589Z,102895.88
2023-01-23T08:38:47.569Z,102749.06
2023-01-23T08:41:14.495Z,102777.56
2023-01-23T08:43:44.216Z,102876.56
2023-01-23T08:46:11.561Z,102784.63
2023-01-23T08:48:38.474Z,102874.44
2023-01-23T08:51:25.552Z,102872.91
2023-01-23T08:53:53.176Z,102773.63
2023-01-23T08:56:22.179Z,102873.31
2023-01-23T08:58:49.800Z,102892.25
2023-01-23T09:01:21.349Z,102834.91
2023-01-23T09:03:48.235Z,102718.69
2023-01-23T09:06:17.656Z,102898.38
2023-01-23T09:08:52.318Z,102886.94
2023-01-23T09:11:19.188Z,102745.28
2023-01-23T09:13:46.962Z,102894.72
2023-01-23T09:16:13.554Z,102678.19
2023-01-23T09:18:39.937Z,102860.28
2023-01-23T09:21:11.399Z,102763.00
2023-01-23T09:23:40.532Z,102721.63
2023-01-23T09:26:09.771Z,102890.94
2023-01-23T09:28:37.166Z,102832.63
2023-01-23T09:31:07.279Z,102793.09
2023-01-23T09:33:34.724Z,102893.47
2023-01-23T09:36:01.833Z,102914.78
2023-01-23T09:38:28.360Z,102807.00
2023-01-23T09:40:57.451Z,102921.97
2023-01-23T09:43:32.956Z,102933.50
2023-01-23T09:46:12.734Z,102917.69
2023-01-23T09:48:44.749Z,102791.13
2023-01-23T09:51:53.024Z,102939.78
2023-01-23T09:54:46.833Z,102945.50
2023-01-23T09:57:21.075Z,102823.34
2023-01-23T10:00:00.254Z,102904.50
2023-01-23T10:02:34.226Z,102865.00
2023-01-23T10:05:02.919Z,102917.16
2023-01-23T10:07:59.970Z,102886.69
2023-01-23T10:10:45.114Z,102932.63
2023-01-23T10:13:22.871Z,102909.41
2023-01-23T10:16:16.154Z,102921.88
2023-01-23T10:19:15.476Z,102932.31
2023-01-23T10:21:54.071Z,102923.16
2023-01-23T10:24:45.843Z,102868.25
2023-01-23T10:27:19.210Z,102914.16
2023-01-23T10:29:50.000Z,102835.81
2023-01-23T10:32:28.915Z,102791.47
2023-01-23T10:35:02.345Z,102905.44
2023-01-23T10:37:31.833Z,102912.00
2023-01-23T10:40:02.728Z,102878.22
2023-01-23T10:42:29.355Z,102865.72
2023-01-23T10:44:55.826Z,102791.59
2023-01-23T10:47:37.133Z,102908.59
2023-01-23T10:50:05.990Z,102817.53
2023-01-23T10:52:34.286Z,102817.34
2023-01-23T10:55:00.965Z,102900.13
2023-01-23T10:57:31.104Z,102892.78
2023-01-23T11:00:04.054Z,102798.41
2023-01-23T11:02:37.008Z,102810.88
2023-01-23T11:05:46.866Z,102912.41
2023-01-23T11:08:38.343Z,102901.19
2023-01-23T11:11:25.119Z,102912.53
2023-01-23T11:14:11.074Z,102880.63
2023-01-23T11:16:38.221Z,102882.50
2023-01-23T11:19:07.358Z,102909.72
2023-01-23T11:21:37.880Z,102700.34
2023-01-23T11:24:39.835Z,102787.16
2023-01-23T11:27:13.028Z,102906.03
2023-01-23T11:30:08.562Z,102902.63
2023-01-23T11:32:45.286Z,102849.16
2023-01-23T11:35:57.221Z,102863.06
2023-01-23T11:38:30.741Z,102841.16
2023-01-23T11:40:57.634Z,102780.19
2023-01-23T11:43:24.375Z,102884.78
2023-01-23T11:46:13.414Z,102873.63
2023-01-23T11:48:48.825Z,102905.09
2023-01-23T11:51:41.663Z,102888.44
2023-01-23T11:54:37.340Z,102915.56
2023-01-23T11:57:17.066Z,102907.88
2023-01-23T12:00:10.813Z,102903.72
2023-01-23T12:02:47.419Z,102835.19
2023-01-23T12:06:17.713Z,102910.84
2023-01-23T12:09:04.257Z,102907.38
2023-01-23T12:11:57.870Z,102870.88
2023-01-23T12:14:32.514Z,102883.13
2023-01-23T12:17:22.490Z,102897.22
2023-01-23T12:20:00.439Z,102907.28
2023-01-23T12:22:29.819Z,102895.06
2023-01-23T12:25:15.594Z,102901.78
2023-01-23T12:27:45.058Z,102903.56
2023-01-23T12:30:31.613Z,102898.38
2023-01-23T12:33:37.574Z,102908.78
2023-01-23T12:37:10.018Z,102903.91
2023-01-23T12:40:09.864Z,102906.06
2023-01-23T12:43:04.692Z,102805.38
2023-01-23T12:48:35.065Z,102719.72
2023-01-23T12:51:30.906Z,102897.53
2023-01-23T12:54:15.392Z,102763.91
2023-01-23T12:56:42.441Z,102894.91
2023-01-23T12:59:16.980Z,102897.25
2023-01-23T13:02:05.804Z,102747.53
2023-01-23T13:05:07.864Z,102892.38
2023-01-23T13:07:58.410Z,102896.78
2023-01-23T13:11:31.297Z,102901.50
2023-01-23T13:14:03.693Z,102680.28
2023-01-23T13:16:58.218Z,102677.78
2023-01-23T13:19:48.906Z,102818.22
2023-01-23T13:22:27.749Z,102902.09
2023-01-23T13:25:18.710Z,102909.53
2023-01-23T13:27:58.606Z,102847.19
2023-01-23T13:30:35.941Z,102903.53
2023-01-23T13:33:08.486Z,102897.84
2023-01-23T13:35:43.353Z,102906.50
2023-01-23T13:38:21.959Z,102909.00
2023-01-23T13:41:04.299Z,102907.88
2023-01-23T13:44:04.241Z,102774.88
2023-01-23T14:24:46.027Z,102942.78
2023-01-23T14:27:29.418Z,102921.78
2023-01-23T14:30:01.091Z,102940.81
2023-01-23T14:32:33.386Z,102899.19
2023-01-23T14:34:59.863Z,102902.03
2023-01-23T14:37:29.121Z,102913.09
2023-01-23T14:39:59.795Z,102888.59
2023-01-23T14:42:30.328Z,102936.06
2023-01-23T14:45:00.645Z,102859.53
2023-01-23T14:47:42.234Z,102917.59
2023-01-23T14:50:11.161Z,102816.84
2023-01-23T14:52:37.607Z,102897.78
2023-01-23T14:55:29.244Z,102916.25
2023-01-23T14:57:58.864Z,102929.97
2023-01-23T15:00:26.523Z,102797.63
2023-01-23T15:02:54.497Z,102821.47
2023-01-23T15:05:29.107Z,102919.38
2023-01-23T15:08:20.164Z,102903.28
2023-01-23T15:10:50.390Z,102866.06
2023-01-23T15:13:55.601Z,102946.59
2023-01-23T15:16:24.671Z,102943.91
2023-01-23T15:19:03.890Z,102939.44
2023-01-23T15:21:33.680Z,102907.66
2023-01-23T15:24:09.114Z,102954.91
2023-01-23T15:26:37.622Z,102894.34
2023-01-23T15:29:06.848Z,102948.06
2023-01-23T15:31:36.126Z,102878.09
2023-01-23T15:34:14.943Z,102944.38
2023-01-23T15:37:01.606Z,102945.13
2023-01-23T15:39:32.693Z,102919.84
2023-01-23T15:42:05.244Z,102933.97
2023-01-23T15:44:32.826Z,102925.50
2023-01-23T15:47:03.862Z,102924.25
2023-01-23T15:49:32.242Z,102878.53
2023-01-23T15:52:02.440Z,102924.34
2023-01-23T15:54:34.061Z,102814.97
2023-01-23T15:57:07.429Z,102893.84
2023-01-23T15:59:34.843Z,102913.22
2023-01-23T16:02:01.409Z,102866.50
2023-01-23T16:04:27.782Z,102905.78
2023-01-23T16:06:54.220Z,102771.91
2023-01-23T16:09:30.480Z,102774.78
2023-01-23T16:11:59.729Z,102856.00
2023-01-23T16:14:26.722Z,102770.53
2023-01-23T16:16:53.152Z,102894.56
2023-01-23T16:19:19.688Z,102863.78
2023-01-23T16:21:55.814Z,102863.06
2023-01-23T16:24:26.926Z,102864.63
2023-01-23T16:26:56.449Z,102847.03
2023-01-23T16:29:32.127Z,102894.84
2023-01-23T16:31:59.740Z,102874.19
2023-01-23T16:34:26.601Z,102862.97
2023-01-23T16:36:56.425Z,102880.19
2023-01-23T16:39:26.599Z,102906.59
2023-01-23T16:41:55.835Z,102906.38
2023-01-23T16:44:23.910Z,102879.84
2023-01-23T16:46:52.191Z,102835.25
2023-01-23T16:49:19.433Z,102916.41
2023-01-23T16:51:58.465Z,102925.47
2023-01-23T16:54:26.208Z,102879.44
2023-01-23T16:56:53.494Z,102908.75
2023-01-23T16:59:30.559Z,102878.81
2023-01-23T17:01:57.481Z,102900.97
2023-01-23T17:04:23.887Z,102912.66
2023-01-23T17:06:50.565Z,102892.59
2023-01-23T17:09:17.545Z,102788.91
2023-01-23T17:11:48.137Z,102914.66
2023-01-23T17:14:28.828Z,102867.91
2023-01-23T17:17:02.962Z,102908.25
2023-01-23T17:19:31.071Z,102940.94
2023-01-23T17:22:00.447Z,102869.81
2023-01-23T17:24:27.058Z,102908.00
2023-01-23T17:26:53.520Z,102864.72
2023-01-23T17:29:20.137Z,102929.75
2023-01-23T17:31:48.166Z,102918.53
2023-01-23T17:34:24.121Z,102778.09
2023-01-23T17:36:52.769Z,102885.94
2023-01-23T17:39:20.569Z,102912.44
2023-01-23T17:41:47.060Z,102903.63
2023-01-23T17:44:13.579Z,102919.06
2023-01-23T17:46:40.015Z,102906.38
2023-01-23T17:49:30.370Z,102922.50
2023-01-23T17:51:58.770Z,102904.59
2023-01-23T17:54:26.262Z,102904.59
2023-01-23T17:56:53.315Z,102811.28
2023-01-23T17:59:19.988Z,102901.50
2023-01-23T18:01:47.772Z,102924.66
2023-01-23T18:04:19.406Z,102915.78
2023-01-23T18:06:46.373Z,102912.53
2023-01-23T18:09:13.885Z,102917.72
2023-01-23T18:11:42.995Z,102938.34
2023-01-23T18:14:28.398Z,102931.53
2023-01-23T18:16:55.355Z,102916.91
2023-01-23T18:19:24.368Z,102898.56
2023-01-23T18:21:53.044Z,102922.91
2023-01-23T18:24:31.227Z,102905.38
2023-01-23T18:26:58.849Z,102938.13
2023-01-23T18:29:31.029Z,102936.25
2023-01-23T18:32:31.520Z,102935.75
2023-01-23T18:35:20.917Z,102916.06
2023-01-23T18:38:07.715Z,102937.53
2023-01-23T18:41:03.549Z,102935.28
2023-01-23T18:43:44.349Z,102930.59
2023-01-23T18:46:16.087Z,102933.94
2023-01-23T18:48:44.164Z,102953.19
2023-01-23T18:51:32.651Z,102823.53
2023-01-23T18:54:27.312Z,102971.41
2023-01-23T18:57:31.884Z,102826.84
2023-01-23T19:00:16.675Z,102955.09
2023-01-23T19:02:52.225Z,102955.72
2023-01-23T19:05:25.882Z,102955.00
2023-01-23T19:07:52.491Z,102933.94
2023-01-23T19:10:24.202Z,102916.81
2023-01-23T19:12:59.784Z,102972.47
2023-01-23T19:15:32.530Z,102965.91
2023-01-23T19:18:09.297Z,102861.59
2023-01-23T19:20:48.322Z,102975.50
2023-01-23T19:23:32.362Z,102838.41
2023-01-23T19:25:58.992Z,102864.31
2023-01-23T19:28:25.604Z,102846.41
2023-01-23T19:30:52.233Z,102944.91
2023-01-23T19:33:19.668Z,102975.78
2023-01-23T19:35:47.212Z,102987.41
2023-01-23T19:38:14.992Z,102948.63
2023-01-23T19:40:42.296Z,102943.00
2023-01-23T19:43:15.874Z,102978.66
2023-01-23T19:45:46.166Z,102946.09
2023-01-23T19:48:13.453Z,102900.34
2023-01-23T19:50:40.491Z,102889.56
2023-01-23T19:53:07.223Z,102880.22
2023-01-23T19:55:35.987Z,102898.69
2023-01-23T19:58:02.575Z,102947.16
2023-01-23T20:00:31.918Z,102954.69
2023-01-23T20:02:58.726Z,102964.81
2023-01-23T20:05:26.145Z,102884.50
2023-01-23T20:07:56.373Z,102984.41
2023-01-23T20:10:23.100Z,102965.34
2023-01-23T20:12:52.041Z,103019.88
2023-01-23T20:15:22.394Z,102864.97
2023-01-23T20:17:49.219Z,102964.13
2023-01-23T20:20:16.282Z,102913.72
2023-01-23T20:22:43.768Z,102949.97
2023-01-23T20:25:13.295Z,103007.03
2023-01-23T20:27:40.990Z,102989.47
2023-01-23T20:30:13.130Z,102999.31
2023-01-23T20:32:39.648Z,103024.38
2023-01-23T20:35:06.402Z,102982.28
2023-01-23T20:37:32.803Z,102998.56
2023-01-23T20:39:59.335Z,103002.53
2023-01-23T20:42:25.709Z,102865.84
2023-01-23T20:44:52.202Z,102984.28
2023-01-23T20:47:18.618Z,102993.38
2023-01-23T20:49:44.935Z,102897.63
2023-01-23T20:52:29.890Z,102959.31
2023-01-23T20:54:56.360Z,102998.56
2023-01-23T20:57:22.758Z,103024.25
2023-01-23T20:59:49.186Z,102881.78
2023-01-23T21:02:29.178Z,102964.34
2023-01-23T21:04:55.761Z,102912.94
2023-01-23T21:07:22.591Z,103013.28
2023-01-23T21:09:51.197Z,102963.53
2023-01-23T21:12:17.719Z,102902.81
2023-01-23T21:14:44.093Z,102953.81
2023-01-23T21:17:10.695Z,102864.56
2023-01-23T21:19:38.925Z,102951.03
2023-01-23T21:22:07.130Z,102989.44
2023-01-23T21:24:36.026Z,102975.22
2023-01-23T21:27:04.411Z,102981.34
2023-01-23T21:29:32.538Z,102844.66
2023-01-23T21:31:59.448Z,102997.34
2023-01-23T21:34:26.203Z,102978.75
2023-01-23T21:36:53.073Z,102977.81
2023-01-23T21:39:19.460Z,102981.66
2023-01-23T21:41:45.944Z,102966.13
2023-01-23T21:44:12.929Z,102979.56
2023-01-23T21:46:39.584Z,102949.50
2023-01-23T21:49:08.834Z,102949.63
2023-01-23T21:51:35.379Z,102957.50
2023-01-23T21:54:01.811Z,102954.69
2023-01-23T21:56:28.248Z,102968.97
2023-01-23T21:58:55.262Z,102866.81
2023-01-23T22:01:42.201Z,102896.28
2023-01-23T22:04:15.278Z,103011.38
2023-01-23T22:06:43.194Z,102899.06
2023-01-23T22:09:13.792Z,102872.72
2023-01-23T22:11:45.430Z,102852.31
2023-01-23T22:14:12.311Z,102852.50
2023-01-23T22:16:54.570Z,102722.25
2023-01-23T22:19:25.568Z,102807.97
2023-01-23T22:21:58.609Z,102912.28
2023-01-23T22:24:25.565Z,102852.19
2023-01-23T22:26:56.314Z,102765.56
2023-01-23T22:29:25.179Z,102896.09
2023-01-23T22:31:56.034Z,102784.22
2023-01-23T22:34:22.741Z,102769.94
2023-01-23T22:36:49.336Z,102726.72
2023-01-23T22:39:21.140Z,102952.34
2023-01-23T22:41:50.346Z,102995.03
2023-01-23T22:44:17.420Z,102944.44
2023-01-23T22:46:44.262Z,103037.72
2023-01-23T22:49:11.034Z,102817.34
2023-01-23T22:51:37.691Z,103033.56
2023-01-23T22:54:07.068Z,102828.50
2023-01-23T22:56:33.496Z,102893.28
2023-01-23T22:59:01.204Z,102961.88
2023-01-23T23:01:28.131Z,102840.22
2023-01-23T23:03:57.745Z,102846.75
2023-01-23T23:06:24.588Z,102972.63
2023-01-23T23:08:51.103Z,102784.63
2023-01-23T23:11:20.373Z,103005.25
2023-01-23T23:13:47.614Z,102971.44
2023-01-23T23:16:20.765Z,102771.34
2023-01-23T23:18:49.063Z,102896.59
2023-01-23T23:21:18.220Z,102974.38
2023-01-23T23:23:44.763Z,102977.56
2023-01-23T23:26:12.541Z,102975.22
2023-01-23T23:28:39.804Z,102997.59
2023-01-23T23:31:07.707Z,102968.41
2023-01-23T23:33:34.144Z,102966.41
2023-01-23T23:36:00.483Z,102901.00
2023-01-23T23:38:26.888Z,102985.59
2023-01-23T23:40:58.351Z,102955.75
2023-01-23T23:43:25.472Z,102975.69
2023-01-23T23:45:57.202Z,102965.19
2023-01-23T23:48:24.150Z,102999.75
2023-01-23T23:50:51.039Z,102915.56
2023-01-23T23:53:17.748Z,102966.94
2023-01-23T23:55:44.484Z,102970.50
2023-01-23T23:58:10.944Z,103008.81
